Terminal Aerodrome Forecast
Issued by NWS State College, PA

Home | Current Version | Previous Version | Text Only | Print | Product List | Glossary On
Versions: 1 2 3 4 5 6 7 8 9 10 11 12 13 14 15 16 17 18 19 20 21 22 23 24
000
FTUS41 KCTP 301727
TAFMDT
TAF
KMDT 301727Z 3018/3118 VRB03KT P6SM SCT050
     FM310000 VRB02KT P6SM SCT250
     FM310900 00000KT 5SM BR SCT250
     FM311500 20003KT P6SM SCT250=

USA.gov is the U.S. government's official web portal to all federal, state and local government web resources and services.